Point Hope, AK

11:18 PM AKDT on September 25, 2016 (GMT -0800)
Point Hope | | Change Station
Active Advisory: Winter Weather Advisory

Elev 13 ft 68.35 °N, 166.80 °W | Updated 6 hours ago

Partly Cloudy
Partly Cloudy
28 °F
Feels Like 20 °F
N
8
Wind Variable Wind from NNW
Gusts mph

Today
High -- | Low -- °F
--% Chance of Precip.
Yesterday
High -- | Low -- °F
Precip. -- in
Pressure 29.77 in
Visibility 4.0 miles
Clouds Mostly Cloudy 700 ft
Overcast 1500 ft
Windchill 20 °F
Dew Point 24 °F
Humidity 84%
Rainfall 0.09 in
Snow Depth Not available.
9:01 AM 8:53 PM
Waning Crescent, 21% visible
METAR PAPO 260056Z AUTO 02011KT 4SM -SN BR BKN007 OVC015 01/00 A2977 RMK AO2 RAE43SNB43 CIG 006V011 SLP080 P0000 T00110000 FZRANO
Pressure 29.77 in
Visibility 4.0 miles
Clouds Mostly Cloudy 700 ft
Overcast 1500 ft
Windchill 20 °F
Dew Point 24 °F
Humidity 84%
Rainfall 0.09 in
Snow Depth Not available.
9:01 AM 8:53 PM
Waning Crescent, 21% visible
METAR PAPO 260056Z AUTO 02011KT 4SM -SN BR BKN007 OVC015 01/00 A2977 RMK AO2 RAE43SNB43 CIG 006V011 SLP080 P0000 T00110000 FZRANO

10-Day Weather Forecast

Almanac

Astronomy

Sep. 25, 2016 Rise Set
Actual Time
Civil Twilight
Nautical Twilight
Astronomical Twilight
Moon
Length of Visible Light
Length of Day
Tomorrow will be .
, % of the Moon is Illuminated

Today's Extremes

State Highs State Lows

Community

WunderPhotos

Upload Photos

1,941,853 photos uploaded!

WunderBlog® & News

Nearby

Air Quality

  Air Quality AQ Index Pollutant
Not available.

Snow Depth

Station Depth Elevation

Earthquake Activity

City Distance Mag. Time & Date
Minimum magnitude displayed is 2.5.

Coastal Water Temperatures

Place Temperature

Stations

Nearby Weather Stations

Station Location Temp. Windchill Dew Point Humidity Wind Precip. Elev Updated Type
                   

Watches & Warnings

Winter Weather Advisory
Issued: 1:54 PM AKDT Sep. 25, 2016 – National Weather Service

... Winter Weather Advisory in effect from 6 PM this evening to 6
PM akdt Monday...

The National Weather Service in Fairbanks has issued a Winter
Weather Advisory for snow... which is in effect from 6 PM this
evening to 6 PM akdt Monday.

* Location... north of Noatak

* snow... 4 to 8 inches.

* Timing... snow will increase this evening and continue through
early Monday evening.

* Impacts... visibility may be greatly reduced. Travel and outdoor
activities will be difficult.

Precautionary/preparedness actions...

A Winter Weather Advisory means that one or more winter weather
hazards are expected to cause travel difficulties.